현재 위치

  1. 게시판
  2. 사용후기

사용후기

♡고객님의 소중한 리뷰는 저희에게 큰 힘이 됩니다♡

상품 게시판 목록
번호 상품정보 카테고리 제목 작성자 작성일 조회 추천 평점
43 내용 보기 해외선물 나무위키 작성**** 2019-08-18 22:20:34 0 0 0점
42 [구름과환경]21st 킥보드 로얄 내용 보기 만족 네이**** 2019-08-08 02:21:05 2 0 5점
41 [에어워크] 성인 인라인 보호대 내용 보기 만족 네이**** 2019-08-01 02:41:30 2 0 5점
40 롤러블레이드 성인용 블랙 인라인 가방 내용 보기 보통 네이**** 2019-08-01 02:33:06 1 0 3점
39 2019 롤러블레이드 제트라블레이드 피트니스 인라인 내용 보기 보통 HIT 네이**** 2019-07-29 09:50:07 10 0 3점
38 [넛케이스][Tracer] 2017 트레이서 Ember Red (엠버레드) 내용 보기 만족 HIT 네이**** 2019-06-17 09:28:24 20 0 5점
37 [구름과환경]21st 킥보드 로얄 내용 보기 보통 HIT 네이**** 2019-05-28 02:36:36 15 0 3점
36 [구름과환경]21st 킥보드 로얄 내용 보기 만족 HIT 네이**** 2019-05-24 02:44:09 77 0 5점
35 [구름과환경]21st 킥보드 로얄 내용 보기 보통 HIT 네이**** 2019-05-21 02:36:12 186 0 3점
34 롤러블레이드 RB CRUISER FSK 인라인 내용 보기 만족 HIT 네이**** 2019-05-16 02:42:16 85 0 5점
33 MET 매트 크래커잭_에메랄드 자전거 인라인 아동용헬멧 내용 보기 보통 HIT 네이**** 2019-04-09 02:52:41 24 0 3점
32 지폼 G-FORM Pro-x Elbow pads 유아/아동 팔꿈치 보호대 인라인/자전거/스케이트보드/롱보드/크루져보드/스키/스노우보드 내용 보기 만족 HIT 네이**** 2018-11-19 02:27:00 96 0 5점
31 내용 보기 만족 네이**** 2018-10-11 02:29:07 6 0 5점
30 K2 아동용 인라인 로디걸 주니어 내용 보기 만족 HIT 네이**** 2018-09-13 02:51:06 52 0 5점
29 AIRWALK 고급 아동용 보호대 내용 보기 만족 HIT 네이**** 2018-09-13 02:51:06 72 0 5점
28 [넛케이스]메트로라이드 Technicolor (테크니컬러) - 무광 S/M 내용 보기 만족 HIT 네이**** 2018-09-04 02:52:33 44 0 5점
27 내용 보기 만족 HIT 네이**** 2018-09-04 02:41:16 32 0 5점
26 K2 아동용인라인 로디보이 주니어(Roadie boy Jr) 내용 보기 만족 HIT 네이**** 2018-09-03 10:09:32 77 0 5점
25 AIRWALK 고급 아동용 보호대 내용 보기 만족 HIT 네이**** 2018-09-03 10:09:32 69 0 5점
24 롤러블레이드 아동용 블루체크 인라인 가방 내용 보기 만족 HIT 네이**** 2018-08-30 02:36:49 68 0 5점
23 K2 아동용인라인 케이던스(Cadence Jr) 내용 보기 만족 HIT 네이**** 2018-08-25 02:30:58 53 0 5점
22 K2 아동용 인라인 레이더 프로팩 / K2보호대 내용 보기 만족 HIT 네이**** 2018-08-10 02:49:26 123 0 5점
21 내용 보기 만족 HIT 네이**** 2018-03-14 02:31:38 55 2 5점
20 [넛케이스]2018 베이비너티 BNUT-1001-XXS Petal Power (페탈파워) 내용 보기 만족 HIT 네이**** 2017-12-27 02:36:30 122 6 5점
19 [넛케이스]2018 리틀너티 Tin Robot (틴로봇) 내용 보기 만족 비밀글 네이**** 2017-10-19 02:23:07 0 0 5점
18 21st킥보드/21st스쿠터/접이식스핀/구름과환경정품 내용 보기 만족 비밀글 네이**** 2017-10-18 02:24:57 0 0 5점
17 [넛케이스]2018 리틀너티 Tin Robot (틴로봇) 내용 보기 만족 비밀글 네이**** 2017-09-25 02:43:17 1 0 5점
16 21st킥보드/21st스쿠터/접이식스핀/구름과환경정품 내용 보기 만족 비밀글 네이**** 2017-09-21 02:23:38 1 0 5점
15 21st킥보드/21st스쿠터/접이식스핀/구름과환경정품 내용 보기 만족 HIT 네이**** 2017-09-20 02:48:10 278 3 5점
14 [넛케이스]2018 베이비너티 BNUT-1001-XXS Petal Power (페탈파워) 내용 보기 만족 HIT 네이**** 2017-09-11 02:29:09 155 8 5점
13 [넛케이스]2018 리틀너티 Radio Wave (라디오웨이브) 내용 보기 만족 HIT 네이**** 2017-09-08 02:37:45 236 1 5점
12 [넛케이스]2018 리틀너티 Silver fly (실버플라이) 내용 보기 만족 HIT 네이**** 2017-09-05 02:34:06 185 4 5점
11 내용 보기 만족 HIT 네이**** 2017-09-04 09:32:42 89 3 5점
10 [넛케이스]2018 베이비너티 BNUT-1001-XXS Petal Power (페탈파워) 내용 보기 만족 HIT 네이**** 2017-08-18 02:37:01 137 1 5점
9 내용 보기 만족 HIT 네이**** 2017-08-13 02:47:21 128 0 5점
8 K2 아동용 인라인 마리 민트 내용 보기 만족 HIT 네이**** 2017-08-03 02:37:24 146 8 5점
7 [넛케이스]2018 리틀너티 Silver fly (실버플라이) 내용 보기 만족 HIT 네이**** 2017-08-02 02:26:10 204 3 5점
6 [넛케이스]2017 리틀너티 Moo (무) 내용 보기 만족 HIT 네이**** 2017-07-29 02:36:30 309 4 5점
5 [넛케이스]2018 리틀너티 Tin Robot (틴로봇) 내용 보기 만족 HIT 네이**** 2017-07-25 02:40:00 117 2 5점
4 내용 보기 만족 HIT 네이**** 2017-07-17 09:35:10 110 1 5점
3 내용 보기 만족 HIT 네이**** 2017-07-13 02:42:31 159 3 5점
2 K2 아동용 인라인 마리 프로 퍼플 내용 보기 만족 HIT 네이**** 2017-07-12 02:35:51 180 0 5점
1 [넛케이스]2018 베이비너티 BNUT-1003-XXS Outer Space (아우터스페이스) 내용 보기 만족 HIT 네이**** 2017-07-11 02:26:58 122 1 5점

글쓰기

이전 페이지

  1. 1

다음 페이지